This is the latest recevied weather packets stored in our database for station/object SP1BMW-13. If no packets are shown the sender has not sent any weather packets the latest 10 day(s).
| Time | Temp. | Humidity | Pressure | Rain* | Wind** | Luminosity | Snow |
|---|---|---|---|---|---|---|---|
| 1778069392 | 9.44° C | 94% | 1006.1 hPa | 0.25 mm | 0.89 m/s, 38° | 136 W/m² | - |
| 1778069332 | 9.44° C | 94% | 1006 hPa | 0.25 mm | 1.34 m/s, 287° | 161 W/m² | - |
| 1778069272 | 9.44° C | 94% | 1005.9 hPa | 0.25 mm | 0.89 m/s, 21° | 134 W/m² | - |
| 1778069211 | 9.44° C | 94% | 1005.8 hPa | 0.25 mm | 1.34 m/s, 347° | 111 W/m² | - |
| 1778069152 | 9.44° C | 94% | 1005.8 hPa | 0.25 mm | 0.45 m/s, 324° | 97 W/m² | - |
| 1778069091 | 9.44° C | 94% | 1006 hPa | 0.25 mm | 2.24 m/s, 32° | 89 W/m² | - |
| 1778069032 | 9.44° C | 94% | 1005.7 hPa | 0.25 mm | 2.24 m/s, 313° | 90 W/m² | - |
| 1778068972 | 9.44° C | 94% | 1005.8 hPa | 0.25 mm | 0.89 m/s, 302° | 87 W/m² | - |
| 1778068912 | 9.44° C | 94% | 1005.8 hPa | 0.25 mm | 0.45 m/s, 6° | 86 W/m² | - |
| 1778068852 | 9.44° C | 94% | 1005.8 hPa | 0.25 mm | 0.45 m/s, 14° | 95 W/m² | - |
| 1778068792 | 9.44° C | 94% | 1005.9 hPa | 0.25 mm | 1.79 m/s, 0° | 131 W/m² | - |
| 1778068732 | 9.44° C | 94% | 1005.6 hPa | 0.25 mm | 0.89 m/s, 355° | 158 W/m² | - |
| 1778068671 | 9.44° C | 94% | 1005.8 hPa | 0.25 mm | 1.34 m/s, 48° | 188 W/m² | - |
| 1778068612 | 9.44° C | 94% | 1005.7 hPa | 0.25 mm | 1.34 m/s, 274° | 190 W/m² | - |
| 1778068551 | 9.44° C | 94% | 1005.6 hPa | 0.25 mm | 1.34 m/s, 328° | 177 W/m² | - |
| 1778068492 | 9.44° C | 94% | 1005.6 hPa | 0.25 mm | 0.45 m/s, 320° | 153 W/m² | - |
| 1778068432 | 9.44° C | 94% | 1005.8 hPa | 0.25 mm | 0.89 m/s, 310° | 161 W/m² | - |
| 1778068373 | 9.44° C | 94% | 1005.6 hPa | 0.25 mm | 1.79 m/s, 292° | 173 W/m² | - |
| 1778068312 | 9.44° C | 94% | 1005.7 hPa | 0.25 mm | 2.24 m/s, 2° | 150 W/m² | - |
| 1778068252 | 9.44° C | 94% | 1005.8 hPa | 0.25 mm | 0.89 m/s, 345° | 135 W/m² | - |
| 1778068192 | 9.44° C | 94% | 1005.7 hPa | 0.25 mm | 0.45 m/s, 283° | 124 W/m² | - |
| 1778068132 | 9.44° C | 94% | 1005.6 hPa | 0.25 mm | 1.79 m/s, 329° | 131 W/m² | - |
| 1778068072 | 9.44° C | 94% | 1005.8 hPa | 0.25 mm | 1.79 m/s, 328° | 122 W/m² | - |
| 1778068012 | 9.44° C | 94% | 1005.7 hPa | 0.25 mm | 1.79 m/s, 323° | 120 W/m² | - |
| 1778067952 | 9.44° C | 94% | 1005.6 hPa | 0.25 mm | 1.34 m/s, 342° | 123 W/m² | - |
* Rain latest hour (hover to see other rain measurements)
** Current wind speed in m/s (hover to see current wind gust speed)